sensor_id;sensor_type;location;lat;lon;timestamp;P1;durP1;ratioP1;P2;durP2;ratioP2
6898;SDS011;3488;42.616;23.350;2023-09-19T00:01:45;5.32;;;4.53;;
6898;SDS011;3488;42.616;23.350;2023-09-19T00:04:14;4.68;;;4.38;;
6898;SDS011;3488;42.616;23.350;2023-09-19T00:06:41;5.10;;;4.72;;
6898;SDS011;3488;42.616;23.350;2023-09-19T00:09:09;5.00;;;4.47;;
6898;SDS011;3488;42.616;23.350;2023-09-19T00:11:36;5.57;;;4.95;;
6898;SDS011;3488;42.616;23.350;2023-09-19T00:14:04;5.22;;;4.30;;
6898;SDS011;3488;42.616;23.350;2023-09-19T00:16:33;5.13;;;4.70;;
6898;SDS011;3488;42.616;23.350;2023-09-19T00:19:01;5.05;;;4.68;;
6898;SDS011;3488;42.616;23.350;2023-09-19T00:21:35;5.55;;;5.03;;
6898;SDS011;3488;42.616;23.350;2023-09-19T00:24:03;6.68;;;6.07;;
6898;SDS011;3488;42.616;23.350;2023-09-19T00:26:31;5.20;;;4.80;;
6898;SDS011;3488;42.616;23.350;2023-09-19T00:28:59;7.80;;;5.82;;
6898;SDS011;3488;42.616;23.350;2023-09-19T00:31:31;7.13;;;6.53;;
6898;SDS011;3488;42.616;23.350;2023-09-19T00:33:58;6.38;;;5.65;;
6898;SDS011;3488;42.616;23.350;2023-09-19T00:36:29;6.07;;;5.63;;
6898;SDS011;3488;42.616;23.350;2023-09-19T00:38:57;6.88;;;6.28;;
6898;SDS011;3488;42.616;23.350;2023-09-19T00:41:25;6.50;;;6.00;;
6898;SDS011;3488;42.616;23.350;2023-09-19T00:43:55;7.53;;;6.72;;
6898;SDS011;3488;42.616;23.350;2023-09-19T00:46:22;7.25;;;6.65;;
6898;SDS011;3488;42.616;23.350;2023-09-19T00:48:49;7.30;;;6.38;;
6898;SDS011;3488;42.616;23.350;2023-09-19T00:51:16;6.50;;;5.90;;
6898;SDS011;3488;42.616;23.350;2023-09-19T00:53:46;7.32;;;6.65;;
6898;SDS011;3488;42.616;23.350;2023-09-19T00:56:15;6.88;;;6.18;;
6898;SDS011;3488;42.616;23.350;2023-09-19T00:58:43;6.18;;;5.65;;
6898;SDS011;3488;42.616;23.350;2023-09-19T01:01:11;6.88;;;6.20;;
6898;SDS011;3488;42.616;23.350;2023-09-19T01:03:40;6.68;;;5.95;;
6898;SDS011;3488;42.616;23.350;2023-09-19T01:06:07;9.05;;;6.00;;
6898;SDS011;3488;42.616;23.350;2023-09-19T01:08:34;6.47;;;5.93;;
6898;SDS011;3488;42.616;23.350;2023-09-19T01:11:04;6.32;;;5.68;;
6898;SDS011;3488;42.616;23.350;2023-09-19T01:13:44;8.25;;;5.97;;
6898;SDS011;3488;42.616;23.350;2023-09-19T01:16:26;8.63;;;6.75;;
6898;SDS011;3488;42.616;23.350;2023-09-19T01:19:02;9.95;;;7.10;;
6898;SDS011;3488;42.616;23.350;2023-09-19T01:21:51;7.13;;;6.53;;
6898;SDS011;3488;42.616;23.350;2023-09-19T01:24:45;7.78;;;7.07;;
6898;SDS011;3488;42.616;23.350;2023-09-19T01:27:49;8.77;;;7.93;;
6898;SDS011;3488;42.616;23.350;2023-09-19T01:30:35;7.03;;;6.30;;
6898;SDS011;3488;42.616;23.350;2023-09-19T01:33:08;7.20;;;6.60;;
6898;SDS011;3488;42.616;23.350;2023-09-19T01:35:37;8.20;;;7.22;;
6898;SDS011;3488;42.616;23.350;2023-09-19T01:38:04;7.90;;;7.18;;
6898;SDS011;3488;42.616;23.350;2023-09-19T01:40:36;7.40;;;6.82;;
6898;SDS011;3488;42.616;23.350;2023-09-19T01:43:09;8.35;;;7.50;;
6898;SDS011;3488;42.616;23.350;2023-09-19T01:45:46;9.38;;;7.70;;
6898;SDS011;3488;42.616;23.350;2023-09-19T01:48:25;8.07;;;7.30;;
6898;SDS011;3488;42.616;23.350;2023-09-19T01:51:05;8.30;;;7.50;;
6898;SDS011;3488;42.616;23.350;2023-09-19T01:53:35;8.13;;;7.10;;
6898;SDS011;3488;42.616;23.350;2023-09-19T01:56:07;8.00;;;7.25;;
6898;SDS011;3488;42.616;23.350;2023-09-19T01:58:39;7.60;;;6.93;;
6898;SDS011;3488;42.616;23.350;2023-09-19T02:01:10;7.40;;;6.80;;
6898;SDS011;3488;42.616;23.350;2023-09-19T02:03:41;8.73;;;7.18;;
6898;SDS011;3488;42.616;23.350;2023-09-19T02:06:13;7.72;;;6.80;;
6898;SDS011;3488;42.616;23.350;2023-09-19T02:08:40;9.55;;;7.03;;
6898;SDS011;3488;42.616;23.350;2023-09-19T02:11:07;10.07;;;7.95;;
6898;SDS011;3488;42.616;23.350;2023-09-19T02:13:36;8.15;;;7.35;;
6898;SDS011;3488;42.616;23.350;2023-09-19T02:16:03;8.95;;;7.72;;
6898;SDS011;3488;42.616;23.350;2023-09-19T02:18:33;8.48;;;7.68;;
6898;SDS011;3488;42.616;23.350;2023-09-19T02:21:00;8.23;;;7.38;;
6898;SDS011;3488;42.616;23.350;2023-09-19T02:23:29;12.20;;;8.10;;
6898;SDS011;3488;42.616;23.350;2023-09-19T02:25:56;9.30;;;7.47;;
6898;SDS011;3488;42.616;23.350;2023-09-19T02:28:25;8.52;;;7.75;;
6898;SDS011;3488;42.616;23.350;2023-09-19T02:30:55;7.80;;;7.07;;
6898;SDS011;3488;42.616;23.350;2023-09-19T02:33:22;8.07;;;7.35;;
6898;SDS011;3488;42.616;23.350;2023-09-19T02:35:53;11.68;;;8.23;;
6898;SDS011;3488;42.616;23.350;2023-09-19T02:38:22;7.60;;;6.82;;
6898;SDS011;3488;42.616;23.350;2023-09-19T02:40:50;8.50;;;7.63;;
6898;SDS011;3488;42.616;23.350;2023-09-19T02:43:17;7.50;;;6.80;;
6898;SDS011;3488;42.616;23.350;2023-09-19T02:45:44;7.88;;;7.18;;
6898;SDS011;3488;42.616;23.350;2023-09-19T02:48:11;8.38;;;7.35;;
6898;SDS011;3488;42.616;23.350;2023-09-19T02:50:40;7.75;;;7.05;;
6898;SDS011;3488;42.616;23.350;2023-09-19T02:53:08;7.55;;;6.85;;
6898;SDS011;3488;42.616;23.350;2023-09-19T02:55:35;7.57;;;6.88;;
6898;SDS011;3488;42.616;23.350;2023-09-19T02:58:03;8.32;;;7.35;;
6898;SDS011;3488;42.616;23.350;2023-09-19T03:00:32;7.75;;;6.95;;
6898;SDS011;3488;42.616;23.350;2023-09-19T03:03:00;8.45;;;7.65;;
6898;SDS011;3488;42.616;23.350;2023-09-19T03:05:27;8.77;;;7.80;;
6898;SDS011;3488;42.616;23.350;2023-09-19T03:07:56;9.13;;;7.47;;
6898;SDS011;3488;42.616;23.350;2023-09-19T03:10:27;8.65;;;7.85;;
6898;SDS011;3488;42.616;23.350;2023-09-19T03:12:55;9.27;;;8.20;;
6898;SDS011;3488;42.616;23.350;2023-09-19T03:15:25;8.80;;;7.47;;
6898;SDS011;3488;42.616;23.350;2023-09-19T03:17:52;12.48;;;8.40;;
6898;SDS011;3488;42.616;23.350;2023-09-19T03:20:19;10.77;;;7.88;;
6898;SDS011;3488;42.616;23.350;2023-09-19T03:22:47;11.20;;;6.90;;
6898;SDS011;3488;42.616;23.350;2023-09-19T03:25:15;7.82;;;7.15;;
6898;SDS011;3488;42.616;23.350;2023-09-19T03:27:44;9.05;;;7.63;;
6898;SDS011;3488;42.616;23.350;2023-09-19T03:30:11;8.70;;;7.90;;
6898;SDS011;3488;42.616;23.350;2023-09-19T03:32:43;10.23;;;8.27;;
6898;SDS011;3488;42.616;23.350;2023-09-19T03:35:11;9.98;;;7.97;;
6898;SDS011;3488;42.616;23.350;2023-09-19T03:37:39;7.80;;;7.13;;
6898;SDS011;3488;42.616;23.350;2023-09-19T03:40:06;8.48;;;6.93;;
6898;SDS011;3488;42.616;23.350;2023-09-19T03:42:37;8.70;;;7.80;;
6898;SDS011;3488;42.616;23.350;2023-09-19T03:45:06;8.23;;;7.43;;
6898;SDS011;3488;42.616;23.350;2023-09-19T03:47:37;11.05;;;7.70;;
6898;SDS011;3488;42.616;23.350;2023-09-19T03:50:04;8.02;;;7.22;;
6898;SDS011;3488;42.616;23.350;2023-09-19T03:52:33;7.35;;;6.65;;
6898;SDS011;3488;42.616;23.350;2023-09-19T03:55:01;9.63;;;7.90;;
6898;SDS011;3488;42.616;23.350;2023-09-19T03:57:30;11.48;;;8.07;;
6898;SDS011;3488;42.616;23.350;2023-09-19T03:59:57;8.00;;;7.30;;
6898;SDS011;3488;42.616;23.350;2023-09-19T04:02:25;8.90;;;8.10;;
6898;SDS011;3488;42.616;23.350;2023-09-19T04:04:58;11.27;;;8.73;;
6898;SDS011;3488;42.616;23.350;2023-09-19T04:07:26;9.05;;;8.13;;
6898;SDS011;3488;42.616;23.350;2023-09-19T04:09:54;8.65;;;7.72;;
6898;SDS011;3488;42.616;23.350;2023-09-19T04:12:21;8.23;;;7.53;;
6898;SDS011;3488;42.616;23.350;2023-09-19T04:14:49;9.20;;;8.23;;
6898;SDS011;3488;42.616;23.350;2023-09-19T04:17:16;14.98;;;8.73;;
6898;SDS011;3488;42.616;23.350;2023-09-19T04:19:45;11.40;;;9.38;;
6898;SDS011;3488;42.616;23.350;2023-09-19T04:22:13;10.88;;;9.35;;
6898;SDS011;3488;42.616;23.350;2023-09-19T04:24:40;8.63;;;7.82;;
6898;SDS011;3488;42.616;23.350;2023-09-19T04:27:08;9.45;;;8.10;;
6898;SDS011;3488;42.616;23.350;2023-09-19T04:29:35;9.75;;;7.90;;
6898;SDS011;3488;42.616;23.350;2023-09-19T04:32:03;9.35;;;8.35;;
6898;SDS011;3488;42.616;23.350;2023-09-19T04:34:31;9.95;;;8.23;;
6898;SDS011;3488;42.616;23.350;2023-09-19T04:37:00;10.98;;;8.27;;
6898;SDS011;3488;42.616;23.350;2023-09-19T04:39:28;8.63;;;6.90;;
6898;SDS011;3488;42.616;23.350;2023-09-19T04:41:56;8.10;;;7.40;;
6898;SDS011;3488;42.616;23.350;2023-09-19T04:44:23;9.50;;;7.43;;
6898;SDS011;3488;42.616;23.350;2023-09-19T04:46:50;8.20;;;7.35;;
6898;SDS011;3488;42.616;23.350;2023-09-19T04:49:18;10.52;;;7.60;;
6898;SDS011;3488;42.616;23.350;2023-09-19T04:51:45;9.18;;;7.47;;
6898;SDS011;3488;42.616;23.350;2023-09-19T04:54:13;11.23;;;7.32;;
6898;SDS011;3488;42.616;23.350;2023-09-19T04:56:41;10.00;;;8.32;;
6898;SDS011;3488;42.616;23.350;2023-09-19T04:59:08;7.55;;;6.82;;
6898;SDS011;3488;42.616;23.350;2023-09-19T05:01:36;9.10;;;6.93;;
6898;SDS011;3488;42.616;23.350;2023-09-19T05:04:03;7.43;;;6.72;;
6898;SDS011;3488;42.616;23.350;2023-09-19T05:06:30;7.93;;;6.78;;
6898;SDS011;3488;42.616;23.350;2023-09-19T05:09:00;6.93;;;6.28;;
6898;SDS011;3488;42.616;23.350;2023-09-19T05:11:32;7.38;;;6.68;;
6898;SDS011;3488;42.616;23.350;2023-09-19T05:13:59;7.22;;;6.50;;
6898;SDS011;3488;42.616;23.350;2023-09-19T05:16:29;10.68;;;7.28;;
6898;SDS011;3488;42.616;23.350;2023-09-19T05:18:56;9.13;;;7.15;;
6898;SDS011;3488;42.616;23.350;2023-09-19T05:21:25;7.38;;;6.68;;
6898;SDS011;3488;42.616;23.350;2023-09-19T05:23:54;7.38;;;6.55;;
6898;SDS011;3488;42.616;23.350;2023-09-19T05:26:20;6.93;;;6.30;;
6898;SDS011;3488;42.616;23.350;2023-09-19T05:28:49;6.50;;;5.90;;
6898;SDS011;3488;42.616;23.350;2023-09-19T05:31:16;8.30;;;6.53;;
6898;SDS011;3488;42.616;23.350;2023-09-19T05:33:43;10.32;;;7.05;;
6898;SDS011;3488;42.616;23.350;2023-09-19T05:36:10;9.27;;;6.60;;
6898;SDS011;3488;42.616;23.350;2023-09-19T05:38:37;9.38;;;6.28;;
6898;SDS011;3488;42.616;23.350;2023-09-19T05:41:06;6.25;;;5.72;;
6898;SDS011;3488;42.616;23.350;2023-09-19T05:43:33;5.72;;;5.20;;
6898;SDS011;3488;42.616;23.350;2023-09-19T05:46:05;9.88;;;6.15;;
6898;SDS011;3488;42.616;23.350;2023-09-19T05:48:33;5.63;;;4.70;;
6898;SDS011;3488;42.616;23.350;2023-09-19T05:51:01;6.97;;;5.32;;
6898;SDS011;3488;42.616;23.350;2023-09-19T05:53:28;6.10;;;5.53;;
6898;SDS011;3488;42.616;23.350;2023-09-19T05:55:55;5.60;;;5.15;;
6898;SDS011;3488;42.616;23.350;2023-09-19T05:58:22;6.78;;;4.68;;
6898;SDS011;3488;42.616;23.350;2023-09-19T06:00:49;5.57;;;4.78;;
6898;SDS011;3488;42.616;23.350;2023-09-19T06:03:18;4.50;;;4.20;;
6898;SDS011;3488;42.616;23.350;2023-09-19T06:05:46;4.95;;;4.40;;
6898;SDS011;3488;42.616;23.350;2023-09-19T06:08:18;5.00;;;4.18;;
6898;SDS011;3488;42.616;23.350;2023-09-19T06:10:45;4.68;;;4.28;;
6898;SDS011;3488;42.616;23.350;2023-09-19T06:13:14;4.18;;;3.92;;
6898;SDS011;3488;42.616;23.350;2023-09-19T06:15:41;5.07;;;4.63;;
6898;SDS011;3488;42.616;23.350;2023-09-19T06:18:10;4.97;;;4.18;;
6898;SDS011;3488;42.616;23.350;2023-09-19T06:20:41;5.82;;;4.25;;
6898;SDS011;3488;42.616;23.350;2023-09-19T06:23:09;4.97;;;4.22;;
6898;SDS011;3488;42.616;23.350;2023-09-19T06:25:36;5.63;;;4.20;;
6898;SDS011;3488;42.616;23.350;2023-09-19T06:28:04;5.07;;;4.50;;
6898;SDS011;3488;42.616;23.350;2023-09-19T06:30:37;4.63;;;4.32;;
6898;SDS011;3488;42.616;23.350;2023-09-19T06:33:05;7.35;;;4.28;;
6898;SDS011;3488;42.616;23.350;2023-09-19T06:35:33;7.72;;;4.72;;
6898;SDS011;3488;42.616;23.350;2023-09-19T06:38:03;4.35;;;3.90;;
6898;SDS011;3488;42.616;23.350;2023-09-19T06:40:30;5.32;;;4.28;;
6898;SDS011;3488;42.616;23.350;2023-09-19T06:42:57;3.90;;;3.63;;
6898;SDS011;3488;42.616;23.350;2023-09-19T06:45:27;5.45;;;4.15;;
6898;SDS011;3488;42.616;23.350;2023-09-19T06:47:54;4.75;;;4.20;;
6898;SDS011;3488;42.616;23.350;2023-09-19T06:50:23;5.50;;;5.03;;
6898;SDS011;3488;42.616;23.350;2023-09-19T06:52:50;4.45;;;4.05;;
6898;SDS011;3488;42.616;23.350;2023-09-19T06:55:21;4.50;;;4.07;;
6898;SDS011;3488;42.616;23.350;2023-09-19T06:57:50;5.00;;;4.38;;
6898;SDS011;3488;42.616;23.350;2023-09-19T07:00:19;6.28;;;5.10;;
6898;SDS011;3488;42.616;23.350;2023-09-19T07:02:57;4.32;;;3.85;;
6898;SDS011;3488;42.616;23.350;2023-09-19T07:05:26;4.50;;;4.10;;
6898;SDS011;3488;42.616;23.350;2023-09-19T07:07:54;5.05;;;4.65;;
6898;SDS011;3488;42.616;23.350;2023-09-19T07:10:23;5.50;;;5.00;;
6898;SDS011;3488;42.616;23.350;2023-09-19T07:12:55;4.90;;;4.50;;
6898;SDS011;3488;42.616;23.350;2023-09-19T07:15:23;4.97;;;4.55;;
6898;SDS011;3488;42.616;23.350;2023-09-19T07:17:54;6.53;;;4.75;;
6898;SDS011;3488;42.616;23.350;2023-09-19T07:20:21;6.38;;;4.95;;
6898;SDS011;3488;42.616;23.350;2023-09-19T07:22:51;6.35;;;4.72;;
6898;SDS011;3488;42.616;23.350;2023-09-19T07:25:19;4.70;;;3.88;;
6898;SDS011;3488;42.616;23.350;2023-09-19T07:27:48;4.97;;;4.57;;
6898;SDS011;3488;42.616;23.350;2023-09-19T07:30:16;6.10;;;4.93;;
6898;SDS011;3488;42.616;23.350;2023-09-19T07:32:43;6.60;;;4.72;;
6898;SDS011;3488;42.616;23.350;2023-09-19T07:35:10;6.88;;;4.25;;
6898;SDS011;3488;42.616;23.350;2023-09-19T07:37:37;5.28;;;4.72;;
6898;SDS011;3488;42.616;23.350;2023-09-19T07:40:05;5.70;;;4.82;;
6898;SDS011;3488;42.616;23.350;2023-09-19T07:42:34;7.07;;;5.45;;
6898;SDS011;3488;42.616;23.350;2023-09-19T07:45:03;7.63;;;5.97;;
6898;SDS011;3488;42.616;23.350;2023-09-19T07:47:31;5.88;;;4.82;;
6898;SDS011;3488;42.616;23.350;2023-09-19T07:49:58;5.55;;;4.90;;
6898;SDS011;3488;42.616;23.350;2023-09-19T07:52:27;6.30;;;5.63;;
6898;SDS011;3488;42.616;23.350;2023-09-19T07:54:54;7.07;;;5.22;;
6898;SDS011;3488;42.616;23.350;2023-09-19T07:57:22;5.53;;;5.03;;
6898;SDS011;3488;42.616;23.350;2023-09-19T07:59:50;9.48;;;5.35;;
6898;SDS011;3488;42.616;23.350;2023-09-19T08:02:18;7.90;;;5.03;;
6898;SDS011;3488;42.616;23.350;2023-09-19T08:04:45;7.63;;;4.53;;
6898;SDS011;3488;42.616;23.350;2023-09-19T08:07:14;6.45;;;5.72;;
6898;SDS011;3488;42.616;23.350;2023-09-19T08:09:41;5.38;;;4.78;;
6898;SDS011;3488;42.616;23.350;2023-09-19T08:12:11;9.73;;;4.70;;
6898;SDS011;3488;42.616;23.350;2023-09-19T08:14:40;6.13;;;5.15;;
6898;SDS011;3488;42.616;23.350;2023-09-19T08:17:07;6.13;;;5.50;;
6898;SDS011;3488;42.616;23.350;2023-09-19T08:19:36;6.65;;;6.00;;
6898;SDS011;3488;42.616;23.350;2023-09-19T08:22:07;8.27;;;5.53;;
6898;SDS011;3488;42.616;23.350;2023-09-19T08:24:35;6.22;;;5.57;;
6898;SDS011;3488;42.616;23.350;2023-09-19T08:27:03;5.53;;;5.10;;
6898;SDS011;3488;42.616;23.350;2023-09-19T08:29:34;10.70;;;6.47;;
6898;SDS011;3488;42.616;23.350;2023-09-19T08:32:01;6.55;;;5.28;;
6898;SDS011;3488;42.616;23.350;2023-09-19T08:34:28;8.70;;;5.85;;
6898;SDS011;3488;42.616;23.350;2023-09-19T08:36:59;6.43;;;5.82;;
6898;SDS011;3488;42.616;23.350;2023-09-19T08:39:26;5.68;;;5.28;;
6898;SDS011;3488;42.616;23.350;2023-09-19T08:41:56;5.35;;;4.72;;
6898;SDS011;3488;42.616;23.350;2023-09-19T08:44:24;8.85;;;5.65;;
6898;SDS011;3488;42.616;23.350;2023-09-19T08:46:54;9.93;;;4.88;;
6898;SDS011;3488;42.616;23.350;2023-09-19T08:49:24;4.47;;;4.13;;
6898;SDS011;3488;42.616;23.350;2023-09-19T08:52:04;8.23;;;4.95;;
6898;SDS011;3488;42.616;23.350;2023-09-19T08:54:37;5.70;;;4.82;;
6898;SDS011;3488;42.616;23.350;2023-09-19T08:57:07;7.35;;;5.88;;
6898;SDS011;3488;42.616;23.350;2023-09-19T08:59:36;5.63;;;5.13;;
6898;SDS011;3488;42.616;23.350;2023-09-19T09:02:08;8.00;;;5.53;;
6898;SDS011;3488;42.616;23.350;2023-09-19T09:04:38;5.45;;;4.80;;
6898;SDS011;3488;42.616;23.350;2023-09-19T09:07:10;6.75;;;4.88;;
6898;SDS011;3488;42.616;23.350;2023-09-19T09:09:39;5.00;;;4.47;;
6898;SDS011;3488;42.616;23.350;2023-09-19T09:12:08;7.78;;;5.05;;
6898;SDS011;3488;42.616;23.350;2023-09-19T09:14:37;9.00;;;5.45;;
6898;SDS011;3488;42.616;23.350;2023-09-19T09:17:04;5.20;;;4.72;;
6898;SDS011;3488;42.616;23.350;2023-09-19T09:19:32;5.85;;;4.53;;
6898;SDS011;3488;42.616;23.350;2023-09-19T09:22:06;6.38;;;4.68;;
6898;SDS011;3488;42.616;23.350;2023-09-19T09:24:35;5.68;;;5.07;;
6898;SDS011;3488;42.616;23.350;2023-09-19T09:27:05;6.15;;;5.47;;
6898;SDS011;3488;42.616;23.350;2023-09-19T09:29:43;5.70;;;5.18;;
6898;SDS011;3488;42.616;23.350;2023-09-19T09:32:18;5.03;;;4.45;;
6898;SDS011;3488;42.616;23.350;2023-09-19T09:34:50;5.82;;;4.70;;
6898;SDS011;3488;42.616;23.350;2023-09-19T09:37:19;5.15;;;4.75;;
6898;SDS011;3488;42.616;23.350;2023-09-19T09:39:52;4.43;;;4.03;;
6898;SDS011;3488;42.616;23.350;2023-09-19T09:42:31;5.38;;;4.97;;
6898;SDS011;3488;42.616;23.350;2023-09-19T09:45:16;5.18;;;4.78;;
6898;SDS011;3488;42.616;23.350;2023-09-19T09:47:53;5.45;;;4.07;;
6898;SDS011;3488;42.616;23.350;2023-09-19T09:50:27;14.30;;;4.75;;
6898;SDS011;3488;42.616;23.350;2023-09-19T09:53:05;6.47;;;4.65;;
6898;SDS011;3488;42.616;23.350;2023-09-19T09:56:00;10.95;;;4.75;;
6898;SDS011;3488;42.616;23.350;2023-09-19T09:58:31;7.90;;;4.22;;
6898;SDS011;3488;42.616;23.350;2023-09-19T10:00:59;5.72;;;4.47;;
6898;SDS011;3488;42.616;23.350;2023-09-19T10:03:34;5.18;;;4.20;;
6898;SDS011;3488;42.616;23.350;2023-09-19T10:06:05;5.18;;;4.70;;
6898;SDS011;3488;42.616;23.350;2023-09-19T10:09:03;6.53;;;4.88;;
6898;SDS011;3488;42.616;23.350;2023-09-19T10:11:46;4.22;;;3.92;;
6898;SDS011;3488;42.616;23.350;2023-09-19T10:14:19;5.28;;;4.78;;
6898;SDS011;3488;42.616;23.350;2023-09-19T10:16:51;4.60;;;4.30;;
6898;SDS011;3488;42.616;23.350;2023-09-19T10:19:29;6.25;;;4.65;;
6898;SDS011;3488;42.616;23.350;2023-09-19T10:22:02;5.97;;;4.03;;
6898;SDS011;3488;42.616;23.350;2023-09-19T10:24:34;4.90;;;4.50;;
6898;SDS011;3488;42.616;23.350;2023-09-19T10:27:05;4.57;;;4.28;;
6898;SDS011;3488;42.616;23.350;2023-09-19T10:29:34;5.32;;;4.93;;
6898;SDS011;3488;42.616;23.350;2023-09-19T10:32:05;5.88;;;5.10;;
6898;SDS011;3488;42.616;23.350;2023-09-19T10:34:34;5.15;;;4.72;;
6898;SDS011;3488;42.616;23.350;2023-09-19T10:37:02;4.38;;;4.07;;
6898;SDS011;3488;42.616;23.350;2023-09-19T10:39:34;4.80;;;4.47;;
6898;SDS011;3488;42.616;23.350;2023-09-19T10:42:05;7.68;;;5.00;;
6898;SDS011;3488;42.616;23.350;2023-09-19T10:44:34;4.15;;;3.85;;
6898;SDS011;3488;42.616;23.350;2023-09-19T10:47:05;5.88;;;4.63;;
6898;SDS011;3488;42.616;23.350;2023-09-19T10:49:32;5.25;;;4.75;;
6898;SDS011;3488;42.616;23.350;2023-09-19T10:51:59;7.53;;;4.30;;
6898;SDS011;3488;42.616;23.350;2023-09-19T10:54:28;4.80;;;4.30;;
6898;SDS011;3488;42.616;23.350;2023-09-19T10:57:02;8.50;;;4.82;;
6898;SDS011;3488;42.616;23.350;2023-09-19T10:59:32;8.90;;;4.75;;
6898;SDS011;3488;42.616;23.350;2023-09-19T11:02:15;5.25;;;4.80;;
6898;SDS011;3488;42.616;23.350;2023-09-19T11:04:44;5.28;;;4.78;;
6898;SDS011;3488;42.616;23.350;2023-09-19T11:07:14;4.97;;;4.13;;
6898;SDS011;3488;42.616;23.350;2023-09-19T11:09:48;4.97;;;4.53;;
6898;SDS011;3488;42.616;23.350;2023-09-19T11:24:30;6.35;;;4.40;;
6898;SDS011;3488;42.616;23.350;2023-09-19T11:27:11;3.50;;;3.30;;
6898;SDS011;3488;42.616;23.350;2023-09-19T11:29:40;6.85;;;4.45;;
6898;SDS011;3488;42.616;23.350;2023-09-19T11:32:07;4.18;;;3.88;;
6898;SDS011;3488;42.616;23.350;2023-09-19T11:34:43;4.72;;;4.30;;
6898;SDS011;3488;42.616;23.350;2023-09-19T11:40:44;5.43;;;4.32;;
6898;SDS011;3488;42.616;23.350;2023-09-19T11:43:30;5.25;;;4.60;;
6898;SDS011;3488;42.616;23.350;2023-09-19T11:46:02;4.90;;;4.60;;
6898;SDS011;3488;42.616;23.350;2023-09-19T11:48:30;5.07;;;4.65;;
6898;SDS011;3488;42.616;23.350;2023-09-19T11:51:03;6.43;;;4.97;;
6898;SDS011;3488;42.616;23.350;2023-09-19T11:53:45;5.25;;;4.85;;
6898;SDS011;3488;42.616;23.350;2023-09-19T11:56:15;5.15;;;4.45;;
6898;SDS011;3488;42.616;23.350;2023-09-19T11:58:43;4.13;;;3.92;;
6898;SDS011;3488;42.616;23.350;2023-09-19T12:01:12;4.38;;;4.00;;
6898;SDS011;3488;42.616;23.350;2023-09-19T12:03:45;7.55;;;4.30;;
6898;SDS011;3488;42.616;23.350;2023-09-19T12:06:16;7.55;;;4.07;;
6898;SDS011;3488;42.616;23.350;2023-09-19T12:08:43;4.70;;;4.03;;
6898;SDS011;3488;42.616;23.350;2023-09-19T12:11:14;5.18;;;3.95;;
6898;SDS011;3488;42.616;23.350;2023-09-19T12:13:42;4.25;;;3.92;;
6898;SDS011;3488;42.616;23.350;2023-09-19T12:16:12;4.43;;;4.00;;
6898;SDS011;3488;42.616;23.350;2023-09-19T12:18:43;5.45;;;3.92;;
6898;SDS011;3488;42.616;23.350;2023-09-19T12:21:22;6.10;;;4.63;;
6898;SDS011;3488;42.616;23.350;2023-09-19T12:23:59;4.90;;;3.92;;
6898;SDS011;3488;42.616;23.350;2023-09-19T12:26:37;4.40;;;4.00;;
6898;SDS011;3488;42.616;23.350;2023-09-19T12:29:10;5.50;;;5.05;;
6898;SDS011;3488;42.616;23.350;2023-09-19T12:31:47;5.03;;;4.63;;
6898;SDS011;3488;42.616;23.350;2023-09-19T12:34:16;4.63;;;4.28;;
6898;SDS011;3488;42.616;23.350;2023-09-19T12:36:46;5.10;;;4.38;;
6898;SDS011;3488;42.616;23.350;2023-09-19T12:39:22;4.72;;;4.43;;
6898;SDS011;3488;42.616;23.350;2023-09-19T12:41:51;4.70;;;4.22;;
6898;SDS011;3488;42.616;23.350;2023-09-19T12:44:19;4.47;;;4.13;;
6898;SDS011;3488;42.616;23.350;2023-09-19T12:46:46;4.65;;;4.30;;
6898;SDS011;3488;42.616;23.350;2023-09-19T12:49:17;4.55;;;4.22;;
6898;SDS011;3488;42.616;23.350;2023-09-19T12:51:46;4.70;;;4.30;;
6898;SDS011;3488;42.616;23.350;2023-09-19T12:54:14;4.20;;;3.80;;
6898;SDS011;3488;42.616;23.350;2023-09-19T12:56:42;4.43;;;4.13;;
6898;SDS011;3488;42.616;23.350;2023-09-19T12:59:12;4.15;;;3.85;;
6898;SDS011;3488;42.616;23.350;2023-09-19T13:01:40;6.82;;;4.53;;
6898;SDS011;3488;42.616;23.350;2023-09-19T13:04:15;4.50;;;4.10;;
6898;SDS011;3488;42.616;23.350;2023-09-19T13:06:53;4.45;;;4.07;;
6898;SDS011;3488;42.616;23.350;2023-09-19T13:09:26;5.40;;;4.28;;
6898;SDS011;3488;42.616;23.350;2023-09-19T13:11:59;5.75;;;4.53;;
6898;SDS011;3488;42.616;23.350;2023-09-19T13:14:28;3.88;;;3.58;;
6898;SDS011;3488;42.616;23.350;2023-09-19T13:16:57;4.53;;;4.13;;
6898;SDS011;3488;42.616;23.350;2023-09-19T13:19:34;6.82;;;4.28;;
6898;SDS011;3488;42.616;23.350;2023-09-19T13:25:06;4.72;;;3.63;;
6898;SDS011;3488;42.616;23.350;2023-09-19T13:27:39;5.60;;;4.30;;
6898;SDS011;3488;42.616;23.350;2023-09-19T13:30:07;4.55;;;4.28;;
6898;SDS011;3488;42.616;23.350;2023-09-19T13:32:35;4.30;;;3.97;;
6898;SDS011;3488;42.616;23.350;2023-09-19T13:35:04;4.38;;;4.07;;
6898;SDS011;3488;42.616;23.350;2023-09-19T13:37:34;4.43;;;3.80;;
6898;SDS011;3488;42.616;23.350;2023-09-19T13:40:08;4.05;;;3.85;;
6898;SDS011;3488;42.616;23.350;2023-09-19T13:42:36;5.88;;;4.75;;
6898;SDS011;3488;42.616;23.350;2023-09-19T13:45:04;5.57;;;4.18;;
6898;SDS011;3488;42.616;23.350;2023-09-19T13:47:32;4.78;;;4.32;;
6898;SDS011;3488;42.616;23.350;2023-09-19T13:50:01;6.28;;;4.25;;
6898;SDS011;3488;42.616;23.350;2023-09-19T13:52:29;5.88;;;4.75;;
6898;SDS011;3488;42.616;23.350;2023-09-19T13:54:57;5.32;;;4.30;;
6898;SDS011;3488;42.616;23.350;2023-09-19T13:57:26;4.22;;;3.92;;
6898;SDS011;3488;42.616;23.350;2023-09-19T13:59:54;4.88;;;4.40;;
6898;SDS011;3488;42.616;23.350;2023-09-19T14:02:21;5.13;;;4.32;;
6898;SDS011;3488;42.616;23.350;2023-09-19T14:04:49;4.25;;;3.92;;
6898;SDS011;3488;42.616;23.350;2023-09-19T14:07:17;5.47;;;5.07;;
6898;SDS011;3488;42.616;23.350;2023-09-19T14:09:45;4.90;;;4.35;;
6898;SDS011;3488;42.616;23.350;2023-09-19T14:12:12;5.82;;;4.35;;
6898;SDS011;3488;42.616;23.350;2023-09-19T14:14:41;6.70;;;4.40;;
6898;SDS011;3488;42.616;23.350;2023-09-19T14:17:11;4.22;;;3.92;;
6898;SDS011;3488;42.616;23.350;2023-09-19T14:19:40;7.43;;;4.30;;
6898;SDS011;3488;42.616;23.350;2023-09-19T14:22:09;4.50;;;4.10;;
6898;SDS011;3488;42.616;23.350;2023-09-19T14:24:39;5.38;;;4.20;;
6898;SDS011;3488;42.616;23.350;2023-09-19T14:27:06;6.25;;;4.85;;
6898;SDS011;3488;42.616;23.350;2023-09-19T14:29:34;5.30;;;4.60;;
6898;SDS011;3488;42.616;23.350;2023-09-19T14:32:03;5.25;;;4.75;;
6898;SDS011;3488;42.616;23.350;2023-09-19T14:34:31;4.88;;;4.47;;
6898;SDS011;3488;42.616;23.350;2023-09-19T14:36:58;4.55;;;3.83;;
6898;SDS011;3488;42.616;23.350;2023-09-19T14:39:25;4.88;;;4.57;;
6898;SDS011;3488;42.616;23.350;2023-09-19T14:41:52;6.00;;;5.32;;
6898;SDS011;3488;42.616;23.350;2023-09-19T14:44:19;5.60;;;5.00;;
6898;SDS011;3488;42.616;23.350;2023-09-19T14:46:46;5.07;;;4.68;;
6898;SDS011;3488;42.616;23.350;2023-09-19T14:49:14;5.85;;;4.93;;
6898;SDS011;3488;42.616;23.350;2023-09-19T14:51:42;14.57;;;13.00;;
6898;SDS011;3488;42.616;23.350;2023-09-19T14:54:10;5.70;;;5.20;;
6898;SDS011;3488;42.616;23.350;2023-09-19T14:56:37;7.05;;;6.25;;
6898;SDS011;3488;42.616;23.350;2023-09-19T14:59:05;7.05;;;5.20;;
6898;SDS011;3488;42.616;23.350;2023-09-19T15:01:32;5.28;;;4.80;;
6898;SDS011;3488;42.616;23.350;2023-09-19T15:03:58;5.28;;;4.78;;
6898;SDS011;3488;42.616;23.350;2023-09-19T15:06:28;6.28;;;4.72;;
6898;SDS011;3488;42.616;23.350;2023-09-19T15:08:55;5.07;;;4.68;;
6898;SDS011;3488;42.616;23.350;2023-09-19T15:11:23;6.45;;;5.15;;
6898;SDS011;3488;42.616;23.350;2023-09-19T15:13:51;7.72;;;6.32;;
6898;SDS011;3488;42.616;23.350;2023-09-19T15:16:19;18.42;;;14.85;;
6898;SDS011;3488;42.616;23.350;2023-09-19T15:18:47;5.70;;;5.22;;
6898;SDS011;3488;42.616;23.350;2023-09-19T15:21:15;6.97;;;5.13;;
6898;SDS011;3488;42.616;23.350;2023-09-19T15:23:43;6.43;;;5.25;;
6898;SDS011;3488;42.616;23.350;2023-09-19T15:26:12;5.75;;;5.10;;
6898;SDS011;3488;42.616;23.350;2023-09-19T15:28:42;4.93;;;4.50;;
6898;SDS011;3488;42.616;23.350;2023-09-19T15:31:10;5.43;;;4.88;;
6898;SDS011;3488;42.616;23.350;2023-09-19T15:33:38;5.28;;;4.65;;
6898;SDS011;3488;42.616;23.350;2023-09-19T15:36:05;7.72;;;5.78;;